createdAt,value
2022-11-15T00:09:46.227Z,90.04
2022-11-15T00:39:50.426Z,90.50
2022-11-15T01:09:54.552Z,92.12
2022-11-15T01:39:58.774Z,93.91
2022-11-15T02:10:08.069Z,93.47
2022-11-15T02:40:18.721Z,93.37
2022-11-15T04:12:47.151Z,90.36
2022-11-15T04:42:51.298Z,89.96
2022-11-15T05:12:55.440Z,90.52
2022-11-15T05:42:59.761Z,89.82
2022-11-15T06:13:05.348Z,91.93
2022-11-15T06:43:09.565Z,93.46
2022-11-15T07:13:13.732Z,91.26
2022-11-15T07:43:17.843Z,90.70
2022-11-15T08:13:22.244Z,89.74
2022-11-15T08:43:26.526Z,90.20
2022-11-15T09:13:31.122Z,88.76
2022-11-15T09:43:43.011Z,84.85
2022-11-15T10:13:49.076Z,81.31
2022-11-15T10:44:13.130Z,75.71
2022-11-15T11:14:23.389Z,68.64
2022-11-15T11:44:35.725Z,58.20
2022-11-15T12:14:43.954Z,63.82
2022-11-15T12:45:01.054Z,73.94
2022-11-15T13:15:39.672Z,74.14
2022-11-15T13:45:46.910Z,73.01
2022-11-15T14:41:48.640Z,76.89
2022-11-15T15:11:55.546Z,80.01
2022-11-15T15:41:59.700Z,81.25
2022-11-15T16:12:03.766Z,83.15
2022-11-15T16:42:08.051Z,85.14
2022-11-15T17:12:12.360Z,87.40
2022-11-15T17:42:16.615Z,88.57
2022-11-15T18:12:21.067Z,87.75
2022-11-15T18:42:25.269Z,86.50
2022-11-15T19:12:29.443Z,85.47
2022-11-15T19:42:33.589Z,86.56
2022-11-15T20:12:37.698Z,85.56
2022-11-15T20:42:41.913Z,87.27
2022-11-15T21:12:45.968Z,88.27
2022-11-15T21:42:49.985Z,89.39
2022-11-15T22:12:53.978Z,90.34
2022-11-15T22:42:58.111Z,90.54
2022-11-15T23:13:17.106Z,92.82
2022-11-15T23:43:23.219Z,94.07
